sensor_id;sensor_type;location;lat;lon;timestamp;P1;durP1;ratioP1;P2;durP2;ratioP2
51838;SDS011;37886;53.174;6.368;2023-04-25T00:02:20;30.30;;;8.48;;
51838;SDS011;37886;53.174;6.368;2023-04-25T00:04:47;34.88;;;8.50;;
51838;SDS011;37886;53.174;6.368;2023-04-25T00:07:14;32.92;;;9.02;;
51838;SDS011;37886;53.174;6.368;2023-04-25T00:09:40;37.05;;;8.85;;
51838;SDS011;37886;53.174;6.368;2023-04-25T00:12:06;33.80;;;7.20;;
51838;SDS011;37886;53.174;6.368;2023-04-25T00:14:32;35.85;;;8.93;;
51838;SDS011;37886;53.174;6.368;2023-04-25T00:17:00;29.65;;;8.85;;
51838;SDS011;37886;53.174;6.368;2023-04-25T00:19:27;36.78;;;9.07;;
51838;SDS011;37886;53.174;6.368;2023-04-25T00:21:54;29.88;;;8.57;;
51838;SDS011;37886;53.174;6.368;2023-04-25T00:24:20;31.80;;;9.05;;
51838;SDS011;37886;53.174;6.368;2023-04-25T00:26:46;31.08;;;7.82;;
51838;SDS011;37886;53.174;6.368;2023-04-25T00:29:12;36.42;;;9.00;;
51838;SDS011;37886;53.174;6.368;2023-04-25T00:31:38;25.92;;;7.25;;
51838;SDS011;37886;53.174;6.368;2023-04-25T00:34:03;25.95;;;7.72;;
51838;SDS011;37886;53.174;6.368;2023-04-25T00:36:29;29.35;;;8.30;;
51838;SDS011;37886;53.174;6.368;2023-04-25T00:38:55;29.27;;;8.65;;
51838;SDS011;37886;53.174;6.368;2023-04-25T00:41:21;21.48;;;8.60;;
51838;SDS011;37886;53.174;6.368;2023-04-25T00:43:47;26.08;;;7.88;;
51838;SDS011;37886;53.174;6.368;2023-04-25T00:46:13;37.03;;;8.70;;
51838;SDS011;37886;53.174;6.368;2023-04-25T00:48:39;17.08;;;7.15;;
51838;SDS011;37886;53.174;6.368;2023-04-25T00:51:05;28.85;;;8.43;;
51838;SDS011;37886;53.174;6.368;2023-04-25T00:53:31;28.73;;;7.93;;
51838;SDS011;37886;53.174;6.368;2023-04-25T00:55:57;36.80;;;8.15;;
51838;SDS011;37886;53.174;6.368;2023-04-25T00:58:24;30.55;;;8.05;;
51838;SDS011;37886;53.174;6.368;2023-04-25T01:00:50;24.75;;;6.80;;
51838;SDS011;37886;53.174;6.368;2023-04-25T01:03:19;28.40;;;8.07;;
51838;SDS011;37886;53.174;6.368;2023-04-25T01:05:46;33.35;;;7.57;;
51838;SDS011;37886;53.174;6.368;2023-04-25T01:08:13;24.50;;;8.07;;
51838;SDS011;37886;53.174;6.368;2023-04-25T01:10:39;26.48;;;7.40;;
51838;SDS011;37886;53.174;6.368;2023-04-25T01:13:05;23.52;;;6.70;;
51838;SDS011;37886;53.174;6.368;2023-04-25T01:15:31;18.30;;;7.82;;
51838;SDS011;37886;53.174;6.368;2023-04-25T01:17:57;25.02;;;6.55;;
51838;SDS011;37886;53.174;6.368;2023-04-25T01:20:23;28.05;;;9.20;;
51838;SDS011;37886;53.174;6.368;2023-04-25T01:22:53;25.23;;;7.63;;
51838;SDS011;37886;53.174;6.368;2023-04-25T01:25:20;20.98;;;6.97;;
51838;SDS011;37886;53.174;6.368;2023-04-25T01:27:47;26.08;;;7.90;;
51838;SDS011;37886;53.174;6.368;2023-04-25T01:30:13;26.88;;;7.35;;
51838;SDS011;37886;53.174;6.368;2023-04-25T01:32:39;21.80;;;7.32;;
51838;SDS011;37886;53.174;6.368;2023-04-25T01:35:07;25.17;;;7.80;;
51838;SDS011;37886;53.174;6.368;2023-04-25T01:37:36;16.90;;;7.05;;
51838;SDS011;37886;53.174;6.368;2023-04-25T01:40:05;22.42;;;6.93;;
51838;SDS011;37886;53.174;6.368;2023-04-25T01:42:32;22.00;;;6.53;;
51838;SDS011;37886;53.174;6.368;2023-04-25T01:44:59;27.85;;;7.20;;
51838;SDS011;37886;53.174;6.368;2023-04-25T01:47:25;23.70;;;6.55;;
51838;SDS011;37886;53.174;6.368;2023-04-25T01:49:52;20.30;;;6.95;;
51838;SDS011;37886;53.174;6.368;2023-04-25T01:52:17;29.63;;;6.72;;
51838;SDS011;37886;53.174;6.368;2023-04-25T01:54:43;15.68;;;6.10;;
51838;SDS011;37886;53.174;6.368;2023-04-25T01:57:13;21.77;;;6.95;;
51838;SDS011;37886;53.174;6.368;2023-04-25T01:59:39;20.48;;;6.57;;
51838;SDS011;37886;53.174;6.368;2023-04-25T02:02:07;29.17;;;7.35;;
51838;SDS011;37886;53.174;6.368;2023-04-25T02:04:32;25.85;;;6.85;;
51838;SDS011;37886;53.174;6.368;2023-04-25T02:06:58;21.88;;;7.05;;
51838;SDS011;37886;53.174;6.368;2023-04-25T02:09:24;28.25;;;7.47;;
51838;SDS011;37886;53.174;6.368;2023-04-25T02:11:50;25.60;;;8.45;;
51838;SDS011;37886;53.174;6.368;2023-04-25T02:14:15;22.40;;;6.53;;
51838;SDS011;37886;53.174;6.368;2023-04-25T02:16:41;16.42;;;7.28;;
51838;SDS011;37886;53.174;6.368;2023-04-25T02:19:09;19.80;;;7.07;;
51838;SDS011;37886;53.174;6.368;2023-04-25T02:21:35;26.50;;;6.93;;
51838;SDS011;37886;53.174;6.368;2023-04-25T02:24:02;18.42;;;6.55;;
51838;SDS011;37886;53.174;6.368;2023-04-25T02:26:28;19.75;;;7.13;;
51838;SDS011;37886;53.174;6.368;2023-04-25T02:28:54;26.77;;;6.53;;
51838;SDS011;37886;53.174;6.368;2023-04-25T02:31:20;20.38;;;6.30;;
51838;SDS011;37886;53.174;6.368;2023-04-25T02:33:45;27.38;;;7.72;;
51838;SDS011;37886;53.174;6.368;2023-04-25T02:36:12;27.70;;;7.00;;
51838;SDS011;37886;53.174;6.368;2023-04-25T02:38:38;24.75;;;7.43;;
51838;SDS011;37886;53.174;6.368;2023-04-25T02:41:03;16.80;;;6.82;;
51838;SDS011;37886;53.174;6.368;2023-04-25T02:43:29;25.40;;;6.82;;
51838;SDS011;37886;53.174;6.368;2023-04-25T02:45:55;32.35;;;7.07;;
51838;SDS011;37886;53.174;6.368;2023-04-25T02:48:21;13.80;;;5.85;;
51838;SDS011;37886;53.174;6.368;2023-04-25T02:50:46;22.00;;;6.28;;
51838;SDS011;37886;53.174;6.368;2023-04-25T02:53:12;21.38;;;6.63;;
51838;SDS011;37886;53.174;6.368;2023-04-25T02:55:38;23.00;;;6.25;;
51838;SDS011;37886;53.174;6.368;2023-04-25T02:58:04;27.08;;;7.10;;
51838;SDS011;37886;53.174;6.368;2023-04-25T03:00:30;16.95;;;6.88;;
51838;SDS011;37886;53.174;6.368;2023-04-25T03:02:56;26.20;;;6.60;;
51838;SDS011;37886;53.174;6.368;2023-04-25T03:05:21;23.20;;;6.55;;
51838;SDS011;37886;53.174;6.368;2023-04-25T03:07:47;20.42;;;6.50;;
51838;SDS011;37886;53.174;6.368;2023-04-25T03:10:13;22.85;;;6.68;;
51838;SDS011;37886;53.174;6.368;2023-04-25T03:12:39;24.50;;;5.95;;
51838;SDS011;37886;53.174;6.368;2023-04-25T03:15:04;18.52;;;5.93;;
51838;SDS011;37886;53.174;6.368;2023-04-25T03:17:30;19.08;;;5.78;;
51838;SDS011;37886;53.174;6.368;2023-04-25T03:19:57;26.48;;;6.35;;
51838;SDS011;37886;53.174;6.368;2023-04-25T03:22:22;22.17;;;6.50;;
51838;SDS011;37886;53.174;6.368;2023-04-25T03:24:49;16.42;;;5.57;;
51838;SDS011;37886;53.174;6.368;2023-04-25T03:27:15;14.57;;;5.47;;
51838;SDS011;37886;53.174;6.368;2023-04-25T03:29:41;27.95;;;6.63;;
51838;SDS011;37886;53.174;6.368;2023-04-25T03:32:07;21.48;;;7.68;;
51838;SDS011;37886;53.174;6.368;2023-04-25T03:34:33;28.27;;;7.00;;
51838;SDS011;37886;53.174;6.368;2023-04-25T03:36:59;22.75;;;6.45;;
51838;SDS011;37886;53.174;6.368;2023-04-25T03:39:25;22.67;;;6.35;;
51838;SDS011;37886;53.174;6.368;2023-04-25T03:41:50;19.75;;;5.80;;
51838;SDS011;37886;53.174;6.368;2023-04-25T03:44:16;22.48;;;6.20;;
51838;SDS011;37886;53.174;6.368;2023-04-25T03:46:42;23.52;;;6.53;;
51838;SDS011;37886;53.174;6.368;2023-04-25T03:49:08;22.60;;;6.18;;
51838;SDS011;37886;53.174;6.368;2023-04-25T03:51:33;17.45;;;6.70;;
51838;SDS011;37886;53.174;6.368;2023-04-25T03:53:59;23.25;;;6.22;;
51838;SDS011;37886;53.174;6.368;2023-04-25T03:56:24;20.58;;;6.75;;
51838;SDS011;37886;53.174;6.368;2023-04-25T03:58:50;21.60;;;6.55;;
51838;SDS011;37886;53.174;6.368;2023-04-25T04:01:16;23.75;;;6.25;;
51838;SDS011;37886;53.174;6.368;2023-04-25T04:03:42;24.23;;;6.82;;
51838;SDS011;37886;53.174;6.368;2023-04-25T04:06:07;18.85;;;6.50;;
51838;SDS011;37886;53.174;6.368;2023-04-25T04:08:34;20.90;;;6.95;;
51838;SDS011;37886;53.174;6.368;2023-04-25T04:11:00;16.73;;;5.93;;
51838;SDS011;37886;53.174;6.368;2023-04-25T04:13:26;27.50;;;5.93;;
51838;SDS011;37886;53.174;6.368;2023-04-25T04:15:52;21.58;;;6.75;;
51838;SDS011;37886;53.174;6.368;2023-04-25T04:18:18;25.33;;;7.22;;
51838;SDS011;37886;53.174;6.368;2023-04-25T04:20:44;24.15;;;7.53;;
51838;SDS011;37886;53.174;6.368;2023-04-25T04:23:11;28.08;;;6.15;;
51838;SDS011;37886;53.174;6.368;2023-04-25T04:25:37;18.15;;;6.43;;
51838;SDS011;37886;53.174;6.368;2023-04-25T04:28:04;20.00;;;6.78;;
51838;SDS011;37886;53.174;6.368;2023-04-25T04:30:31;20.02;;;6.63;;
51838;SDS011;37886;53.174;6.368;2023-04-25T04:32:58;19.77;;;7.10;;
51838;SDS011;37886;53.174;6.368;2023-04-25T04:35:25;25.98;;;7.97;;
51838;SDS011;37886;53.174;6.368;2023-04-25T04:37:51;22.45;;;7.75;;
51838;SDS011;37886;53.174;6.368;2023-04-25T04:40:18;25.52;;;8.02;;
51838;SDS011;37886;53.174;6.368;2023-04-25T04:42:44;25.92;;;8.35;;
51838;SDS011;37886;53.174;6.368;2023-04-25T04:45:13;21.63;;;8.05;;
51838;SDS011;37886;53.174;6.368;2023-04-25T04:47:39;26.88;;;7.40;;
51838;SDS011;37886;53.174;6.368;2023-04-25T04:50:06;20.83;;;7.45;;
51838;SDS011;37886;53.174;6.368;2023-04-25T04:52:37;23.70;;;6.78;;
51838;SDS011;37886;53.174;6.368;2023-04-25T04:55:04;25.27;;;8.23;;
51838;SDS011;37886;53.174;6.368;2023-04-25T04:57:30;20.90;;;7.90;;
51838;SDS011;37886;53.174;6.368;2023-04-25T04:59:58;26.13;;;8.48;;
51838;SDS011;37886;53.174;6.368;2023-04-25T05:02:23;23.67;;;7.28;;
51838;SDS011;37886;53.174;6.368;2023-04-25T05:04:49;29.83;;;7.22;;
51838;SDS011;37886;53.174;6.368;2023-04-25T05:07:16;18.10;;;6.47;;
51838;SDS011;37886;53.174;6.368;2023-04-25T05:09:42;19.30;;;7.18;;
51838;SDS011;37886;53.174;6.368;2023-04-25T05:12:08;15.32;;;6.20;;
51838;SDS011;37886;53.174;6.368;2023-04-25T05:14:34;21.98;;;6.47;;
51838;SDS011;37886;53.174;6.368;2023-04-25T05:17:00;21.63;;;6.88;;
51838;SDS011;37886;53.174;6.368;2023-04-25T05:19:25;23.60;;;7.65;;
51838;SDS011;37886;53.174;6.368;2023-04-25T05:21:51;22.90;;;7.38;;
51838;SDS011;37886;53.174;6.368;2023-04-25T05:24:17;15.27;;;5.95;;
51838;SDS011;37886;53.174;6.368;2023-04-25T05:26:43;16.25;;;5.97;;
51838;SDS011;37886;53.174;6.368;2023-04-25T05:29:08;19.77;;;7.20;;
51838;SDS011;37886;53.174;6.368;2023-04-25T05:31:35;16.30;;;6.18;;
51838;SDS011;37886;53.174;6.368;2023-04-25T05:34:01;18.75;;;5.90;;
51838;SDS011;37886;53.174;6.368;2023-04-25T05:36:27;16.88;;;5.68;;
51838;SDS011;37886;53.174;6.368;2023-04-25T05:38:53;20.90;;;6.90;;
51838;SDS011;37886;53.174;6.368;2023-04-25T05:41:19;15.20;;;5.65;;
51838;SDS011;37886;53.174;6.368;2023-04-25T05:43:45;15.85;;;5.82;;
51838;SDS011;37886;53.174;6.368;2023-04-25T05:46:12;14.98;;;5.18;;
51838;SDS011;37886;53.174;6.368;2023-04-25T05:48:38;22.13;;;6.13;;
51838;SDS011;37886;53.174;6.368;2023-04-25T05:51:04;13.73;;;5.70;;
51838;SDS011;37886;53.174;6.368;2023-04-25T05:53:30;18.13;;;5.65;;
51838;SDS011;37886;53.174;6.368;2023-04-25T05:55:55;21.50;;;6.15;;
51838;SDS011;37886;53.174;6.368;2023-04-25T05:58:21;27.35;;;6.28;;
51838;SDS011;37886;53.174;6.368;2023-04-25T06:00:47;21.60;;;6.00;;
51838;SDS011;37886;53.174;6.368;2023-04-25T06:03:13;14.98;;;6.13;;
51838;SDS011;37886;53.174;6.368;2023-04-25T06:05:42;11.75;;;4.85;;
51838;SDS011;37886;53.174;6.368;2023-04-25T06:08:08;16.25;;;6.32;;
51838;SDS011;37886;53.174;6.368;2023-04-25T06:10:35;15.43;;;5.93;;
51838;SDS011;37886;53.174;6.368;2023-04-25T06:13:01;13.13;;;5.72;;
51838;SDS011;37886;53.174;6.368;2023-04-25T06:15:27;13.70;;;5.57;;
51838;SDS011;37886;53.174;6.368;2023-04-25T06:17:53;14.38;;;5.57;;
51838;SDS011;37886;53.174;6.368;2023-04-25T06:20:18;10.90;;;4.80;;
51838;SDS011;37886;53.174;6.368;2023-04-25T06:22:48;15.65;;;5.78;;
51838;SDS011;37886;53.174;6.368;2023-04-25T06:25:14;12.85;;;5.20;;
51838;SDS011;37886;53.174;6.368;2023-04-25T06:27:40;17.45;;;6.00;;
51838;SDS011;37886;53.174;6.368;2023-04-25T06:30:06;19.77;;;6.13;;
51838;SDS011;37886;53.174;6.368;2023-04-25T06:32:32;11.00;;;5.00;;
51838;SDS011;37886;53.174;6.368;2023-04-25T06:34:59;12.45;;;5.03;;
51838;SDS011;37886;53.174;6.368;2023-04-25T06:37:25;16.52;;;5.43;;
51838;SDS011;37886;53.174;6.368;2023-04-25T06:39:51;10.98;;;4.80;;
51838;SDS011;37886;53.174;6.368;2023-04-25T06:42:17;13.75;;;4.50;;
51838;SDS011;37886;53.174;6.368;2023-04-25T06:44:42;10.05;;;5.00;;
51838;SDS011;37886;53.174;6.368;2023-04-25T06:47:08;16.63;;;5.20;;
51838;SDS011;37886;53.174;6.368;2023-04-25T06:49:34;9.00;;;5.32;;
51838;SDS011;37886;53.174;6.368;2023-04-25T06:51:59;16.60;;;5.13;;
51838;SDS011;37886;53.174;6.368;2023-04-25T06:54:25;11.52;;;5.00;;
51838;SDS011;37886;53.174;6.368;2023-04-25T06:56:53;23.55;;;5.40;;
51838;SDS011;37886;53.174;6.368;2023-04-25T06:59:19;18.00;;;5.00;;
51838;SDS011;37886;53.174;6.368;2023-04-25T07:01:45;15.93;;;5.45;;
51838;SDS011;37886;53.174;6.368;2023-04-25T07:04:10;12.38;;;5.38;;
51838;SDS011;37886;53.174;6.368;2023-04-25T07:06:36;19.25;;;5.47;;
51838;SDS011;37886;53.174;6.368;2023-04-25T07:09:07;15.57;;;5.40;;
51838;SDS011;37886;53.174;6.368;2023-04-25T07:11:35;10.38;;;5.25;;
51838;SDS011;37886;53.174;6.368;2023-04-25T07:14:01;11.02;;;5.45;;
51838;SDS011;37886;53.174;6.368;2023-04-25T07:16:27;17.38;;;5.88;;
51838;SDS011;37886;53.174;6.368;2023-04-25T07:18:52;17.98;;;5.95;;
51838;SDS011;37886;53.174;6.368;2023-04-25T07:21:18;11.05;;;4.97;;
51838;SDS011;37886;53.174;6.368;2023-04-25T07:23:44;13.18;;;4.75;;
51838;SDS011;37886;53.174;6.368;2023-04-25T07:26:10;13.85;;;5.88;;
51838;SDS011;37886;53.174;6.368;2023-04-25T07:28:35;13.60;;;5.28;;
51838;SDS011;37886;53.174;6.368;2023-04-25T07:31:01;17.45;;;5.20;;
51838;SDS011;37886;53.174;6.368;2023-04-25T07:33:27;8.55;;;4.78;;
51838;SDS011;37886;53.174;6.368;2023-04-25T07:35:53;17.52;;;5.60;;
51838;SDS011;37886;53.174;6.368;2023-04-25T07:38:20;7.95;;;4.82;;
51838;SDS011;37886;53.174;6.368;2023-04-25T07:40:47;14.38;;;4.95;;
51838;SDS011;37886;53.174;6.368;2023-04-25T07:43:13;10.95;;;4.43;;
51838;SDS011;37886;53.174;6.368;2023-04-25T07:45:42;9.02;;;4.43;;
51838;SDS011;37886;53.174;6.368;2023-04-25T07:48:08;6.93;;;3.90;;
51838;SDS011;37886;53.174;6.368;2023-04-25T07:50:34;14.38;;;5.05;;
51838;SDS011;37886;53.174;6.368;2023-04-25T07:52:59;8.68;;;3.92;;
51838;SDS011;37886;53.174;6.368;2023-04-25T07:55:25;8.23;;;4.22;;
51838;SDS011;37886;53.174;6.368;2023-04-25T07:57:51;11.35;;;4.28;;
51838;SDS011;37886;53.174;6.368;2023-04-25T08:00:17;9.23;;;4.85;;
51838;SDS011;37886;53.174;6.368;2023-04-25T08:02:43;10.88;;;5.47;;
51838;SDS011;37886;53.174;6.368;2023-04-25T08:05:08;13.98;;;5.15;;
51838;SDS011;37886;53.174;6.368;2023-04-25T08:07:37;12.90;;;4.65;;
51838;SDS011;37886;53.174;6.368;2023-04-25T08:10:04;9.13;;;5.07;;
51838;SDS011;37886;53.174;6.368;2023-04-25T08:12:31;10.23;;;4.32;;
51838;SDS011;37886;53.174;6.368;2023-04-25T08:14:57;9.68;;;4.80;;
51838;SDS011;37886;53.174;6.368;2023-04-25T08:17:22;10.95;;;4.82;;
51838;SDS011;37886;53.174;6.368;2023-04-25T08:19:48;11.13;;;4.30;;
51838;SDS011;37886;53.174;6.368;2023-04-25T08:22:14;8.98;;;4.55;;
51838;SDS011;37886;53.174;6.368;2023-04-25T08:24:41;7.68;;;4.13;;
51838;SDS011;37886;53.174;6.368;2023-04-25T08:27:06;11.13;;;4.28;;
51838;SDS011;37886;53.174;6.368;2023-04-25T08:29:33;9.75;;;3.97;;
51838;SDS011;37886;53.174;6.368;2023-04-25T08:31:59;10.60;;;4.38;;
51838;SDS011;37886;53.174;6.368;2023-04-25T08:34:24;16.00;;;6.55;;
51838;SDS011;37886;53.174;6.368;2023-04-25T08:36:51;7.25;;;4.45;;
51838;SDS011;37886;53.174;6.368;2023-04-25T08:39:16;9.18;;;4.22;;
51838;SDS011;37886;53.174;6.368;2023-04-25T08:41:42;8.02;;;4.40;;
51838;SDS011;37886;53.174;6.368;2023-04-25T08:44:10;4.65;;;4.10;;
51838;SDS011;37886;53.174;6.368;2023-04-25T08:46:37;10.43;;;4.43;;
51838;SDS011;37886;53.174;6.368;2023-04-25T08:49:05;13.27;;;5.20;;
51838;SDS011;37886;53.174;6.368;2023-04-25T08:51:34;10.07;;;4.18;;
51838;SDS011;37886;53.174;6.368;2023-04-25T08:54:09;11.13;;;4.85;;
51838;SDS011;37886;53.174;6.368;2023-04-25T08:59:12;10.27;;;4.80;;
51838;SDS011;37886;53.174;6.368;2023-04-25T09:01:38;9.00;;;5.07;;
51838;SDS011;37886;53.174;6.368;2023-04-25T09:04:04;10.27;;;4.57;;
51838;SDS011;37886;53.174;6.368;2023-04-25T09:06:30;13.70;;;5.40;;
51838;SDS011;37886;53.174;6.368;2023-04-25T09:09:03;14.55;;;4.85;;
51838;SDS011;37886;53.174;6.368;2023-04-25T09:11:30;12.32;;;4.50;;
51838;SDS011;37886;53.174;6.368;2023-04-25T09:19:25;10.30;;;4.88;;
51838;SDS011;37886;53.174;6.368;2023-04-25T09:21:59;11.43;;;5.05;;
51838;SDS011;37886;53.174;6.368;2023-04-25T09:27:11;18.08;;;6.35;;
51838;SDS011;37886;53.174;6.368;2023-04-25T09:29:42;19.23;;;6.18;;
51838;SDS011;37886;53.174;6.368;2023-04-25T09:32:21;15.90;;;5.57;;
51838;SDS011;37886;53.174;6.368;2023-04-25T09:34:52;11.40;;;5.15;;
51838;SDS011;37886;53.174;6.368;2023-04-25T09:37:19;9.57;;;5.32;;
51838;SDS011;37886;53.174;6.368;2023-04-25T09:39:46;14.68;;;5.18;;
51838;SDS011;37886;53.174;6.368;2023-04-25T09:42:14;8.77;;;4.43;;
51838;SDS011;37886;53.174;6.368;2023-04-25T09:44:45;7.72;;;4.10;;
51838;SDS011;37886;53.174;6.368;2023-04-25T09:47:15;7.15;;;3.97;;
51838;SDS011;37886;53.174;6.368;2023-04-25T09:49:43;14.07;;;5.05;;
51838;SDS011;37886;53.174;6.368;2023-04-25T09:52:13;10.15;;;4.82;;
51838;SDS011;37886;53.174;6.368;2023-04-25T09:54:43;14.77;;;5.00;;
51838;SDS011;37886;53.174;6.368;2023-04-25T09:57:10;11.60;;;5.32;;
51838;SDS011;37886;53.174;6.368;2023-04-25T09:59:38;14.70;;;5.28;;
51838;SDS011;37886;53.174;6.368;2023-04-25T10:02:07;14.45;;;5.22;;
51838;SDS011;37886;53.174;6.368;2023-04-25T10:04:34;13.60;;;5.30;;
51838;SDS011;37886;53.174;6.368;2023-04-25T10:07:03;13.50;;;5.55;;
51838;SDS011;37886;53.174;6.368;2023-04-25T10:09:33;16.50;;;5.95;;
51838;SDS011;37886;53.174;6.368;2023-04-25T10:12:00;13.60;;;4.80;;
51838;SDS011;37886;53.174;6.368;2023-04-25T10:14:26;14.98;;;4.65;;
51838;SDS011;37886;53.174;6.368;2023-04-25T10:16:53;10.30;;;4.28;;
51838;SDS011;37886;53.174;6.368;2023-04-25T10:19:20;14.70;;;4.72;;
51838;SDS011;37886;53.174;6.368;2023-04-25T10:21:51;13.15;;;4.82;;
51838;SDS011;37886;53.174;6.368;2023-04-25T10:24:28;11.45;;;4.63;;
51838;SDS011;37886;53.174;6.368;2023-04-25T10:26:54;10.30;;;4.25;;
51838;SDS011;37886;53.174;6.368;2023-04-25T10:29:25;18.40;;;5.15;;
51838;SDS011;37886;53.174;6.368;2023-04-25T10:31:51;12.15;;;4.80;;
51838;SDS011;37886;53.174;6.368;2023-04-25T10:34:17;9.55;;;4.82;;
51838;SDS011;37886;53.174;6.368;2023-04-25T10:36:48;11.50;;;4.68;;
51838;SDS011;37886;53.174;6.368;2023-04-25T10:39:21;8.05;;;4.78;;
51838;SDS011;37886;53.174;6.368;2023-04-25T10:42:01;9.05;;;4.78;;
51838;SDS011;37886;53.174;6.368;2023-04-25T10:44:31;14.48;;;5.55;;
51838;SDS011;37886;53.174;6.368;2023-04-25T10:46:58;13.98;;;4.80;;
51838;SDS011;37886;53.174;6.368;2023-04-25T10:49:42;13.63;;;4.32;;
51838;SDS011;37886;53.174;6.368;2023-04-25T10:54:42;14.63;;;4.82;;
51838;SDS011;37886;53.174;6.368;2023-04-25T10:57:28;12.75;;;5.20;;
51838;SDS011;37886;53.174;6.368;2023-04-25T10:59:58;9.25;;;4.55;;
51838;SDS011;37886;53.174;6.368;2023-04-25T11:02:30;12.95;;;4.30;;
51838;SDS011;37886;53.174;6.368;2023-04-25T11:04:56;12.95;;;4.85;;
51838;SDS011;37886;53.174;6.368;2023-04-25T11:07:33;10.02;;;4.57;;
51838;SDS011;37886;53.174;6.368;2023-04-25T11:10:04;10.60;;;4.72;;
51838;SDS011;37886;53.174;6.368;2023-04-25T11:12:31;7.25;;;4.40;;
51838;SDS011;37886;53.174;6.368;2023-04-25T11:15:01;7.60;;;4.45;;
51838;SDS011;37886;53.174;6.368;2023-04-25T11:17:31;9.20;;;4.75;;
51838;SDS011;37886;53.174;6.368;2023-04-25T11:19:57;10.20;;;5.22;;
51838;SDS011;37886;53.174;6.368;2023-04-25T11:22:23;10.38;;;5.38;;
51838;SDS011;37886;53.174;6.368;2023-04-25T11:24:48;11.52;;;5.80;;
51838;SDS011;37886;53.174;6.368;2023-04-25T11:27:15;8.25;;;4.93;;
51838;SDS011;37886;53.174;6.368;2023-04-25T11:29:41;10.90;;;4.55;;
51838;SDS011;37886;53.174;6.368;2023-04-25T11:32:07;11.40;;;5.07;;
51838;SDS011;37886;53.174;6.368;2023-04-25T11:34:33;9.98;;;6.32;;
51838;SDS011;37886;53.174;6.368;2023-04-25T11:36:59;8.27;;;5.57;;
51838;SDS011;37886;53.174;6.368;2023-04-25T11:39:27;7.70;;;5.03;;
51838;SDS011;37886;53.174;6.368;2023-04-25T11:41:53;12.70;;;5.93;;
51838;SDS011;37886;53.174;6.368;2023-04-25T11:44:19;8.05;;;5.47;;
51838;SDS011;37886;53.174;6.368;2023-04-25T11:46:45;12.30;;;6.68;;
51838;SDS011;37886;53.174;6.368;2023-04-25T11:49:12;13.23;;;6.78;;
51838;SDS011;37886;53.174;6.368;2023-04-25T11:51:44;14.20;;;6.57;;
51838;SDS011;37886;53.174;6.368;2023-04-25T11:54:11;12.90;;;5.90;;
51838;SDS011;37886;53.174;6.368;2023-04-25T11:56:40;14.88;;;7.10;;
51838;SDS011;37886;53.174;6.368;2023-04-25T11:59:10;16.45;;;7.65;;
51838;SDS011;37886;53.174;6.368;2023-04-25T12:01:37;16.05;;;7.28;;
51838;SDS011;37886;53.174;6.368;2023-04-25T12:04:14;15.13;;;7.90;;
51838;SDS011;37886;53.174;6.368;2023-04-25T12:06:42;16.33;;;7.43;;
51838;SDS011;37886;53.174;6.368;2023-04-25T12:09:13;16.48;;;7.28;;
51838;SDS011;37886;53.174;6.368;2023-04-25T12:11:46;9.23;;;7.33;;
51838;SDS011;37886;53.174;6.368;2023-04-25T12:14:24;14.73;;;7.75;;
51838;SDS011;37886;53.174;6.368;2023-04-25T12:16:52;13.55;;;8.80;;
51838;SDS011;37886;53.174;6.368;2023-04-25T12:19:21;11.85;;;7.63;;
51838;SDS011;37886;53.174;6.368;2023-04-25T12:21:47;11.60;;;7.90;;
51838;SDS011;37886;53.174;6.368;2023-04-25T12:24:17;16.65;;;8.52;;
51838;SDS011;37886;53.174;6.368;2023-04-25T12:26:50;12.57;;;8.25;;
51838;SDS011;37886;53.174;6.368;2023-04-25T12:29:21;12.63;;;7.78;;
51838;SDS011;37886;53.174;6.368;2023-04-25T12:31:49;10.48;;;7.40;;
51838;SDS011;37886;53.174;6.368;2023-04-25T12:34:16;12.00;;;7.72;;
51838;SDS011;37886;53.174;6.368;2023-04-25T12:36:42;25.60;;;23.13;;
51838;SDS011;37886;53.174;6.368;2023-04-25T12:39:08;14.00;;;7.85;;
51838;SDS011;37886;53.174;6.368;2023-04-25T12:41:40;14.00;;;6.63;;
51838;SDS011;37886;53.174;6.368;2023-04-25T12:44:06;16.58;;;7.82;;
51838;SDS011;37886;53.174;6.368;2023-04-25T12:46:32;15.32;;;7.75;;
51838;SDS011;37886;53.174;6.368;2023-04-25T12:48:57;14.50;;;8.50;;
51838;SDS011;37886;53.174;6.368;2023-04-25T12:51:23;14.93;;;7.38;;
51838;SDS011;37886;53.174;6.368;2023-04-25T12:53:50;12.02;;;7.60;;
51838;SDS011;37886;53.174;6.368;2023-04-25T12:56:17;8.93;;;7.90;;
51838;SDS011;37886;53.174;6.368;2023-04-25T12:58:43;14.73;;;7.43;;
51838;SDS011;37886;53.174;6.368;2023-04-25T13:01:09;11.82;;;7.28;;
51838;SDS011;37886;53.174;6.368;2023-04-25T13:03:35;18.42;;;7.32;;
51838;SDS011;37886;53.174;6.368;2023-04-25T13:06:00;15.32;;;7.97;;
51838;SDS011;37886;53.174;6.368;2023-04-25T13:08:26;15.75;;;7.65;;
51838;SDS011;37886;53.174;6.368;2023-04-25T13:10:52;17.55;;;7.22;;
51838;SDS011;37886;53.174;6.368;2023-04-25T13:13:17;16.55;;;8.98;;
51838;SDS011;37886;53.174;6.368;2023-04-25T13:15:43;15.05;;;8.30;;
51838;SDS011;37886;53.174;6.368;2023-04-25T13:18:09;16.02;;;9.52;;
51838;SDS011;37886;53.174;6.368;2023-04-25T13:20:35;16.00;;;9.13;;
51838;SDS011;37886;53.174;6.368;2023-04-25T13:23:01;15.15;;;8.15;;
51838;SDS011;37886;53.174;6.368;2023-04-25T13:25:26;15.07;;;8.57;;
51838;SDS011;37886;53.174;6.368;2023-04-25T13:27:52;15.27;;;8.15;;
51838;SDS011;37886;53.174;6.368;2023-04-25T13:30:18;16.77;;;8.60;;
51838;SDS011;37886;53.174;6.368;2023-04-25T13:32:43;17.23;;;7.50;;
51838;SDS011;37886;53.174;6.368;2023-04-25T13:35:10;11.00;;;7.55;;
51838;SDS011;37886;53.174;6.368;2023-04-25T13:37:37;13.98;;;7.80;;
51838;SDS011;37886;53.174;6.368;2023-04-25T13:40:05;10.52;;;8.02;;
51838;SDS011;37886;53.174;6.368;2023-04-25T13:42:34;11.20;;;8.30;;
51838;SDS011;37886;53.174;6.368;2023-04-25T13:45:03;18.48;;;8.05;;
51838;SDS011;37886;53.174;6.368;2023-04-25T13:47:29;19.05;;;9.40;;
51838;SDS011;37886;53.174;6.368;2023-04-25T13:49:56;15.38;;;8.45;;
51838;SDS011;37886;53.174;6.368;2023-04-25T13:52:22;12.60;;;8.75;;
51838;SDS011;37886;53.174;6.368;2023-04-25T13:54:49;11.25;;;7.22;;
51838;SDS011;37886;53.174;6.368;2023-04-25T13:57:16;14.27;;;7.53;;
51838;SDS011;37886;53.174;6.368;2023-04-25T13:59:42;10.48;;;7.53;;
51838;SDS011;37886;53.174;6.368;2023-04-25T14:02:08;13.88;;;7.72;;
51838;SDS011;37886;53.174;6.368;2023-04-25T14:04:34;10.18;;;6.90;;
51838;SDS011;37886;53.174;6.368;2023-04-25T14:06:59;10.85;;;8.00;;
51838;SDS011;37886;53.174;6.368;2023-04-25T14:09:27;16.00;;;7.53;;
51838;SDS011;37886;53.174;6.368;2023-04-25T14:11:52;11.40;;;7.68;;
51838;SDS011;37886;53.174;6.368;2023-04-25T14:14:19;12.85;;;8.15;;
51838;SDS011;37886;53.174;6.368;2023-04-25T14:16:46;10.85;;;7.43;;
51838;SDS011;37886;53.174;6.368;2023-04-25T14:19:15;10.37;;;7.23;;
51838;SDS011;37886;53.174;6.368;2023-04-25T14:21:41;12.15;;;8.00;;
51838;SDS011;37886;53.174;6.368;2023-04-25T14:24:10;17.75;;;9.65;;
51838;SDS011;37886;53.174;6.368;2023-04-25T14:26:36;14.18;;;8.02;;
51838;SDS011;37886;53.174;6.368;2023-04-25T14:29:03;15.15;;;8.20;;
51838;SDS011;37886;53.174;6.368;2023-04-25T14:31:30;15.43;;;8.32;;
51838;SDS011;37886;53.174;6.368;2023-04-25T14:33:56;13.40;;;8.35;;
51838;SDS011;37886;53.174;6.368;2023-04-25T14:36:21;11.38;;;7.88;;
51838;SDS011;37886;53.174;6.368;2023-04-25T14:38:47;19.20;;;8.02;;
51838;SDS011;37886;53.174;6.368;2023-04-25T14:41:13;11.95;;;7.50;;
51838;SDS011;37886;53.174;6.368;2023-04-25T14:43:39;12.10;;;7.85;;
51838;SDS011;37886;53.174;6.368;2023-04-25T14:46:07;11.90;;;7.68;;
51838;SDS011;37886;53.174;6.368;2023-04-25T14:48:34;11.25;;;6.97;;